sensor_id;sensor_type;location;lat;lon;timestamp;pressure;altitude;pressure_sealevel;temperature;humidity
50859;BME280;36826;47.514;19.056;2023-02-13T00:01:56;102240.84;;;14.82;34.90
50859;BME280;36826;47.514;19.056;2023-02-13T00:04:22;102241.09;;;15.27;34.46
50859;BME280;36826;47.514;19.056;2023-02-13T00:06:47;102242.13;;;14.89;34.27
50859;BME280;36826;47.514;19.056;2023-02-13T00:09:13;102254.25;;;15.32;34.16
50859;BME280;36826;47.514;19.056;2023-02-13T00:11:39;102250.34;;;15.12;33.90
50859;BME280;36826;47.514;19.056;2023-02-13T00:14:05;102251.94;;;15.39;34.24
50859;BME280;36826;47.514;19.056;2023-02-13T00:16:30;102256.31;;;15.28;34.26
50859;BME280;36826;47.514;19.056;2023-02-13T00:18:55;102258.44;;;15.12;35.40
50859;BME280;36826;47.514;19.056;2023-02-13T00:21:21;102263.44;;;15.29;35.39
50859;BME280;36826;47.514;19.056;2023-02-13T00:23:46;102258.75;;;15.31;35.41
50859;BME280;36826;47.514;19.056;2023-02-13T00:26:13;102264.50;;;15.51;35.15
50859;BME280;36826;47.514;19.056;2023-02-13T00:28:38;102270.00;;;15.49;35.57
50859;BME280;36826;47.514;19.056;2023-02-13T00:31:08;102265.22;;;15.17;36.20
50859;BME280;36826;47.514;19.056;2023-02-13T00:33:34;102270.22;;;15.11;36.58
50859;BME280;36826;47.514;19.056;2023-02-13T00:36:13;102267.69;;;15.21;36.39
50859;BME280;36826;47.514;19.056;2023-02-13T00:38:39;102265.09;;;15.19;36.76
50859;BME280;36826;47.514;19.056;2023-02-13T00:41:04;102258.84;;;15.18;36.69
50859;BME280;36826;47.514;19.056;2023-02-13T00:43:30;102265.03;;;15.08;36.41
50859;BME280;36826;47.514;19.056;2023-02-13T00:45:56;102265.00;;;15.21;36.42
50859;BME280;36826;47.514;19.056;2023-02-13T00:48:22;102264.66;;;15.25;36.40
50859;BME280;36826;47.514;19.056;2023-02-13T00:50:48;102269.41;;;14.97;36.62
50859;BME280;36826;47.514;19.056;2023-02-13T00:53:13;102255.22;;;15.07;37.09
50859;BME280;36826;47.514;19.056;2023-02-13T00:55:38;102263.47;;;14.68;37.59
50859;BME280;36826;47.514;19.056;2023-02-13T00:58:04;102248.31;;;14.65;37.58
50859;BME280;36826;47.514;19.056;2023-02-13T01:00:29;102249.16;;;14.79;36.76
50859;BME280;36826;47.514;19.056;2023-02-13T01:02:54;102251.81;;;14.41;37.71
50859;BME280;36826;47.514;19.056;2023-02-13T01:05:20;102243.38;;;14.59;37.38
50859;BME280;36826;47.514;19.056;2023-02-13T01:07:45;102243.81;;;14.53;37.34
50859;BME280;36826;47.514;19.056;2023-02-13T01:10:10;102246.78;;;14.87;36.84
50859;BME280;36826;47.514;19.056;2023-02-13T01:12:35;102252.06;;;15.13;36.73
50859;BME280;36826;47.514;19.056;2023-02-13T01:15:01;102254.13;;;14.85;35.90
50859;BME280;36826;47.514;19.056;2023-02-13T01:17:27;102241.88;;;14.68;36.16
50859;BME280;36826;47.514;19.056;2023-02-13T01:19:52;102224.09;;;14.90;35.79
50859;BME280;36826;47.514;19.056;2023-02-13T01:22:17;102236.03;;;14.61;36.58
50859;BME280;36826;47.514;19.056;2023-02-13T01:24:42;102233.16;;;14.88;36.43
50859;BME280;36826;47.514;19.056;2023-02-13T01:27:08;102234.88;;;14.90;36.39
50859;BME280;36826;47.514;19.056;2023-02-13T01:29:33;102237.00;;;14.73;37.05
50859;BME280;36826;47.514;19.056;2023-02-13T01:31:58;102236.75;;;14.89;36.05
50859;BME280;36826;47.514;19.056;2023-02-13T01:34:24;102237.19;;;14.83;36.98
50859;BME280;36826;47.514;19.056;2023-02-13T01:36:49;102233.09;;;14.77;36.78
50859;BME280;36826;47.514;19.056;2023-02-13T01:39:14;102238.28;;;14.80;36.83
50859;BME280;36826;47.514;19.056;2023-02-13T01:41:40;102230.31;;;14.53;36.94
50859;BME280;36826;47.514;19.056;2023-02-13T01:46:49;102236.78;;;14.63;36.77
50859;BME280;36826;47.514;19.056;2023-02-13T01:49:16;102232.91;;;14.67;37.47
50859;BME280;36826;47.514;19.056;2023-02-13T01:51:42;102230.88;;;14.71;37.28
50859;BME280;36826;47.514;19.056;2023-02-13T01:54:10;102235.81;;;14.77;37.24
50859;BME280;36826;47.514;19.056;2023-02-13T01:59:04;102229.91;;;14.46;37.35
50859;BME280;36826;47.514;19.056;2023-02-13T02:01:31;102231.28;;;14.78;37.06
50859;BME280;36826;47.514;19.056;2023-02-13T02:04:03;102229.13;;;14.57;36.92
50859;BME280;36826;47.514;19.056;2023-02-13T02:06:31;102223.19;;;14.65;36.81
50859;BME280;36826;47.514;19.056;2023-02-13T02:08:59;102224.31;;;14.49;37.13
50859;BME280;36826;47.514;19.056;2023-02-13T02:11:39;102226.53;;;13.79;37.93
50859;BME280;36826;47.514;19.056;2023-02-13T02:14:06;102231.81;;;13.94;37.97
50859;BME280;36826;47.514;19.056;2023-02-13T02:16:31;102222.91;;;14.43;37.53
50859;BME280;36826;47.514;19.056;2023-02-13T02:18:57;102224.81;;;12.98;39.58
50859;BME280;36826;47.514;19.056;2023-02-13T02:27:34;102235.41;;;12.01;41.54
50859;BME280;36826;47.514;19.056;2023-02-13T02:30:02;102230.28;;;11.82;41.60
50859;BME280;36826;47.514;19.056;2023-02-13T02:40:45;102228.09;;;13.43;38.61
50859;BME280;36826;47.514;19.056;2023-02-13T02:43:23;102228.38;;;13.92;37.72
50859;BME280;36826;47.514;19.056;2023-02-13T02:45:53;102219.41;;;12.28;40.11
50859;BME280;36826;47.514;19.056;2023-02-13T02:48:43;102234.78;;;11.36;41.91
50859;BME280;36826;47.514;19.056;2023-02-13T02:57:06;102226.84;;;12.52;39.47
50859;BME280;36826;47.514;19.056;2023-02-13T02:59:34;102220.16;;;12.87;39.40
50859;BME280;36826;47.514;19.056;2023-02-13T03:02:19;102233.97;;;13.35;38.33
50859;BME280;36826;47.514;19.056;2023-02-13T03:05:07;102226.94;;;13.60;37.91
50859;BME280;36826;47.514;19.056;2023-02-13T03:07:55;102214.84;;;13.40;38.26
50859;BME280;36826;47.514;19.056;2023-02-13T03:10:25;102221.88;;;13.69;38.00
50859;BME280;36826;47.514;19.056;2023-02-13T03:13:17;102223.41;;;13.73;37.72
50859;BME280;36826;47.514;19.056;2023-02-13T03:15:53;102225.78;;;13.77;37.73
50859;BME280;36826;47.514;19.056;2023-02-13T03:18:42;102229.66;;;13.73;37.58
50859;BME280;36826;47.514;19.056;2023-02-13T03:21:37;102232.66;;;13.69;38.01
50859;BME280;36826;47.514;19.056;2023-02-13T03:27:13;102228.03;;;13.58;38.56
50859;BME280;36826;47.514;19.056;2023-02-13T03:30:09;102228.22;;;12.02;40.30
50859;BME280;36826;47.514;19.056;2023-02-13T03:32:42;102224.28;;;11.48;41.45
50859;BME280;36826;47.514;19.056;2023-02-13T03:35:33;102227.84;;;12.08;41.09
50859;BME280;36826;47.514;19.056;2023-02-13T03:38:19;102222.94;;;12.15;41.95
50859;BME280;36826;47.514;19.056;2023-02-13T03:40:50;102220.31;;;13.11;39.77
50859;BME280;36826;47.514;19.056;2023-02-13T03:43:38;102221.09;;;13.13;39.63
50859;BME280;36826;47.514;19.056;2023-02-13T03:46:06;102216.88;;;13.37;39.01
50859;BME280;36826;47.514;19.056;2023-02-13T03:48:33;102219.53;;;12.96;39.75
50859;BME280;36826;47.514;19.056;2023-02-13T03:51:19;102223.94;;;12.70;39.08
50859;BME280;36826;47.514;19.056;2023-02-13T03:53:47;102223.25;;;13.08;39.22
50859;BME280;36826;47.514;19.056;2023-02-13T03:56:13;102218.84;;;13.07;38.88
50859;BME280;36826;47.514;19.056;2023-02-13T03:58:58;102218.41;;;12.86;39.55
50859;BME280;36826;47.514;19.056;2023-02-13T04:01:45;102211.13;;;12.88;39.31
50859;BME280;36826;47.514;19.056;2023-02-13T04:04:16;102211.97;;;12.88;39.32
50859;BME280;36826;47.514;19.056;2023-02-13T04:06:55;102217.41;;;13.01;38.89
50859;BME280;36826;47.514;19.056;2023-02-13T04:09:25;102219.50;;;12.83;38.85
50859;BME280;36826;47.514;19.056;2023-02-13T04:11:53;102222.28;;;12.11;39.84
50859;BME280;36826;47.514;19.056;2023-02-13T04:14:21;102225.63;;;12.15;39.23
50859;BME280;36826;47.514;19.056;2023-02-13T04:16:50;102219.53;;;12.96;38.91
50859;BME280;36826;47.514;19.056;2023-02-13T04:19:16;102221.25;;;12.70;39.02
50859;BME280;36826;47.514;19.056;2023-02-13T04:21:42;102216.41;;;12.33;39.23
50859;BME280;36826;47.514;19.056;2023-02-13T04:24:07;102218.31;;;11.43;40.55
50859;BME280;36826;47.514;19.056;2023-02-13T04:26:40;102224.31;;;11.62;40.99
50859;BME280;36826;47.514;19.056;2023-02-13T04:29:06;102219.88;;;12.06;40.54
50859;BME280;36826;47.514;19.056;2023-02-13T04:31:32;102211.84;;;12.63;39.32
50859;BME280;36826;47.514;19.056;2023-02-13T04:33:58;102208.63;;;12.57;39.56
50859;BME280;36826;47.514;19.056;2023-02-13T04:36:23;102214.97;;;12.42;39.97
50859;BME280;36826;47.514;19.056;2023-02-13T04:38:48;102211.63;;;12.80;39.03
50859;BME280;36826;47.514;19.056;2023-02-13T04:41:14;102203.91;;;12.88;39.05
50859;BME280;36826;47.514;19.056;2023-02-13T04:43:39;102204.72;;;12.76;38.82
50859;BME280;36826;47.514;19.056;2023-02-13T04:46:04;102207.66;;;12.58;38.82
50859;BME280;36826;47.514;19.056;2023-02-13T04:48:30;102206.34;;;12.08;40.08
50859;BME280;36826;47.514;19.056;2023-02-13T04:50:55;102201.81;;;12.79;39.25
50859;BME280;36826;47.514;19.056;2023-02-13T04:53:20;102195.88;;;12.74;38.99
50859;BME280;36826;47.514;19.056;2023-02-13T04:55:46;102198.91;;;12.97;38.57
50859;BME280;36826;47.514;19.056;2023-02-13T04:58:11;102190.88;;;12.82;38.68
50859;BME280;36826;47.514;19.056;2023-02-13T05:00:36;102192.31;;;13.01;38.49
50859;BME280;36826;47.514;19.056;2023-02-13T05:03:05;102193.50;;;12.97;38.37
50859;BME280;36826;47.514;19.056;2023-02-13T05:05:31;102193.16;;;12.47;38.65
50859;BME280;36826;47.514;19.056;2023-02-13T05:07:57;102189.06;;;12.68;38.90
50859;BME280;36826;47.514;19.056;2023-02-13T05:10:22;102191.53;;;12.58;38.76
50859;BME280;36826;47.514;19.056;2023-02-13T05:12:48;102195.09;;;12.72;38.39
50859;BME280;36826;47.514;19.056;2023-02-13T05:15:13;102186.56;;;12.23;38.89
50859;BME280;36826;47.514;19.056;2023-02-13T05:17:38;102190.72;;;12.71;38.33
50859;BME280;36826;47.514;19.056;2023-02-13T05:20:04;102182.69;;;12.84;38.32
50859;BME280;36826;47.514;19.056;2023-02-13T05:22:29;102178.88;;;13.01;37.98
50859;BME280;36826;47.514;19.056;2023-02-13T05:25:13;102172.53;;;13.02;37.87
50859;BME280;36826;47.514;19.056;2023-02-13T05:27:38;102176.69;;;12.93;38.08
50859;BME280;36826;47.514;19.056;2023-02-13T05:30:04;102170.41;;;13.07;37.89
50859;BME280;36826;47.514;19.056;2023-02-13T05:32:29;102172.72;;;13.26;37.70
50859;BME280;36826;47.514;19.056;2023-02-13T05:34:55;102177.78;;;12.91;37.70
50859;BME280;36826;47.514;19.056;2023-02-13T05:37:20;102174.00;;;13.20;37.83
50859;BME280;36826;47.514;19.056;2023-02-13T05:39:45;102181.69;;;12.99;37.80
50859;BME280;36826;47.514;19.056;2023-02-13T05:42:10;102175.84;;;13.33;37.35
50859;BME280;36826;47.514;19.056;2023-02-13T05:44:36;102181.09;;;13.22;37.52
50859;BME280;36826;47.514;19.056;2023-02-13T05:47:01;102185.53;;;13.35;37.50
50859;BME280;36826;47.514;19.056;2023-02-13T05:49:26;102185.84;;;13.31;37.51
50859;BME280;36826;47.514;19.056;2023-02-13T05:51:52;102182.56;;;13.13;38.06
50859;BME280;36826;47.514;19.056;2023-02-13T05:54:17;102187.28;;;13.49;37.59
50859;BME280;36826;47.514;19.056;2023-02-13T05:56:42;102190.66;;;13.53;37.78
50859;BME280;36826;47.514;19.056;2023-02-13T05:59:08;102182.56;;;13.53;37.86
50859;BME280;36826;47.514;19.056;2023-02-13T06:01:33;102185.81;;;13.71;37.73
50859;BME280;36826;47.514;19.056;2023-02-13T06:03:58;102200.03;;;13.73;37.29
50859;BME280;36826;47.514;19.056;2023-02-13T06:06:24;102205.44;;;13.73;37.45
50859;BME280;36826;47.514;19.056;2023-02-13T06:08:49;102205.44;;;13.73;37.73
50859;BME280;36826;47.514;19.056;2023-02-13T06:11:15;102215.66;;;13.81;37.52
50859;BME280;36826;47.514;19.056;2023-02-13T06:13:40;102220.59;;;13.48;38.00
50859;BME280;36826;47.514;19.056;2023-02-13T06:16:06;102226.19;;;13.84;36.88
50859;BME280;36826;47.514;19.056;2023-02-13T06:18:32;102222.31;;;13.75;37.25
50859;BME280;36826;47.514;19.056;2023-02-13T06:20:58;102223.16;;;13.63;37.72
50859;BME280;36826;47.514;19.056;2023-02-13T06:23:23;102224.91;;;12.69;38.32
50859;BME280;36826;47.514;19.056;2023-02-13T06:25:49;102235.28;;;12.61;38.28
50859;BME280;36826;47.514;19.056;2023-02-13T06:28:14;102234.63;;;10.61;41.32
50859;BME280;36826;47.514;19.056;2023-02-13T06:30:39;102233.56;;;10.48;42.24
50859;BME280;36826;47.514;19.056;2023-02-13T06:33:05;102236.69;;;11.34;40.34
50859;BME280;36826;47.514;19.056;2023-02-13T06:35:30;102231.72;;;13.02;38.29
50859;BME280;36826;47.514;19.056;2023-02-13T06:37:55;102231.66;;;13.16;37.88
50859;BME280;36826;47.514;19.056;2023-02-13T06:40:20;102227.19;;;16.37;33.32
50859;BME280;36826;47.514;19.056;2023-02-13T06:42:46;102223.50;;;19.22;29.64
50859;BME280;36826;47.514;19.056;2023-02-13T06:45:11;102219.47;;;22.12;27.17
50859;BME280;36826;47.514;19.056;2023-02-13T06:47:41;102230.34;;;19.07;28.34
50859;BME280;36826;47.514;19.056;2023-02-13T06:50:07;102231.72;;;18.91;29.26
50859;BME280;36826;47.514;19.056;2023-02-13T06:52:32;102226.94;;;23.12;25.52
50859;BME280;36826;47.514;19.056;2023-02-13T06:54:58;102217.78;;;26.06;23.14
50859;BME280;36826;47.514;19.056;2023-02-13T06:57:24;102223.84;;;27.76;21.48
50859;BME280;36826;47.514;19.056;2023-02-13T06:59:49;102227.00;;;29.46;20.15
50859;BME280;36826;47.514;19.056;2023-02-13T07:02:15;102226.44;;;30.16;19.51
50859;BME280;36826;47.514;19.056;2023-02-13T07:04:40;102228.03;;;29.65;19.15
50859;BME280;36826;47.514;19.056;2023-02-13T07:07:05;102229.50;;;29.27;19.58
50859;BME280;36826;47.514;19.056;2023-02-13T07:09:31;102244.91;;;28.74;19.91
50859;BME280;36826;47.514;19.056;2023-02-13T07:11:56;102231.63;;;29.25;20.20
50859;BME280;36826;47.514;19.056;2023-02-13T07:14:22;102246.09;;;29.41;19.55
50859;BME280;36826;47.514;19.056;2023-02-13T07:16:47;102246.81;;;30.28;19.05
50859;BME280;36826;47.514;19.056;2023-02-13T07:19:12;102246.22;;;26.13;21.27
50859;BME280;36826;47.514;19.056;2023-02-13T07:21:37;102254.28;;;26.66;21.70
50859;BME280;36826;47.514;19.056;2023-02-13T07:24:03;102246.44;;;30.11;19.20
50859;BME280;36826;47.514;19.056;2023-02-13T07:26:29;102255.03;;;30.94;18.33
50859;BME280;36826;47.514;19.056;2023-02-13T07:28:54;102247.25;;;31.42;18.37
50859;BME280;36826;47.514;19.056;2023-02-13T07:31:19;102253.50;;;32.55;17.55
50859;BME280;36826;47.514;19.056;2023-02-13T07:33:47;102250.81;;;31.24;18.55
50859;BME280;36826;47.514;19.056;2023-02-13T07:36:13;102255.34;;;28.02;20.16
50859;BME280;36826;47.514;19.056;2023-02-13T07:38:38;102251.25;;;28.68;19.68
50859;BME280;36826;47.514;19.056;2023-02-13T07:41:03;102260.38;;;27.41;21.16
50859;BME280;36826;47.514;19.056;2023-02-13T07:43:29;102257.69;;;26.83;21.44
50859;BME280;36826;47.514;19.056;2023-02-13T07:45:57;102255.22;;;30.92;18.45
50859;BME280;36826;47.514;19.056;2023-02-13T07:48:23;102256.41;;;28.01;20.41
50859;BME280;36826;47.514;19.056;2023-02-13T07:50:51;102254.56;;;29.32;20.00
50859;BME280;36826;47.514;19.056;2023-02-13T07:53:16;102254.16;;;24.85;22.14
50859;BME280;36826;47.514;19.056;2023-02-13T07:55:41;102256.13;;;26.44;21.30
50859;BME280;36826;47.514;19.056;2023-02-13T07:58:07;102256.88;;;27.76;20.82
50859;BME280;36826;47.514;19.056;2023-02-13T08:00:32;102261.38;;;29.77;19.61
50859;BME280;36826;47.514;19.056;2023-02-13T08:03:01;102253.75;;;31.79;18.18
50859;BME280;36826;47.514;19.056;2023-02-13T08:05:26;102256.59;;;31.73;17.79
50859;BME280;36826;47.514;19.056;2023-02-13T08:07:52;102248.44;;;31.52;18.09
50859;BME280;36826;47.514;19.056;2023-02-13T08:10:17;102250.72;;;30.14;19.30
50859;BME280;36826;47.514;19.056;2023-02-13T08:13:02;102256.50;;;27.58;20.26
50859;BME280;36826;47.514;19.056;2023-02-13T08:15:27;102245.72;;;30.88;18.58
50859;BME280;36826;47.514;19.056;2023-02-13T08:17:53;102234.06;;;32.43;17.67
50859;BME280;36826;47.514;19.056;2023-02-13T08:20:18;102239.28;;;31.77;17.48
50859;BME280;36826;47.514;19.056;2023-02-13T08:22:43;102230.44;;;31.11;18.18
50859;BME280;36826;47.514;19.056;2023-02-13T08:25:09;102243.28;;;30.99;18.48
50859;BME280;36826;47.514;19.056;2023-02-13T08:27:35;102235.78;;;31.38;18.18
50859;BME280;36826;47.514;19.056;2023-02-13T08:30:00;102238.56;;;30.74;18.34
50859;BME280;36826;47.514;19.056;2023-02-13T08:32:28;102235.91;;;29.54;18.88
50859;BME280;36826;47.514;19.056;2023-02-13T08:34:54;102232.94;;;28.54;19.38
50859;BME280;36826;47.514;19.056;2023-02-13T08:37:19;102231.53;;;26.36;20.78
50859;BME280;36826;47.514;19.056;2023-02-13T08:39:44;102234.00;;;24.38;22.41
50859;BME280;36826;47.514;19.056;2023-02-13T08:42:10;102246.00;;;25.00;21.98
50859;BME280;36826;47.514;19.056;2023-02-13T08:44:35;102234.66;;;24.79;22.33
50859;BME280;36826;47.514;19.056;2023-02-13T08:47:01;102236.28;;;29.85;19.26
50859;BME280;36826;47.514;19.056;2023-02-13T08:49:31;102224.41;;;31.46;18.31
50859;BME280;36826;47.514;19.056;2023-02-13T08:51:56;102225.13;;;31.16;18.06
50859;BME280;36826;47.514;19.056;2023-02-13T08:54:21;102233.13;;;31.25;18.13
50859;BME280;36826;47.514;19.056;2023-02-13T08:56:47;102225.09;;;30.39;18.23
50859;BME280;36826;47.514;19.056;2023-02-13T08:59:12;102231.59;;;28.78;19.59
50859;BME280;36826;47.514;19.056;2023-02-13T09:01:37;102228.16;;;30.69;19.05
50859;BME280;36826;47.514;19.056;2023-02-13T09:04:03;102226.66;;;32.19;18.20
50859;BME280;36826;47.514;19.056;2023-02-13T09:06:28;102217.75;;;31.79;17.66
50859;BME280;36826;47.514;19.056;2023-02-13T09:08:54;102220.88;;;30.29;18.40
50859;BME280;36826;47.514;19.056;2023-02-13T09:11:19;102229.91;;;29.78;19.15
50859;BME280;36826;47.514;19.056;2023-02-13T09:13:47;102226.06;;;30.97;18.26
50859;BME280;36826;47.514;19.056;2023-02-13T09:16:13;102232.00;;;29.89;19.01
50859;BME280;36826;47.514;19.056;2023-02-13T09:18:38;102237.59;;;29.22;19.34
50859;BME280;36826;47.514;19.056;2023-02-13T09:21:07;102219.91;;;31.27;18.23
50859;BME280;36826;47.514;19.056;2023-02-13T09:23:34;102228.88;;;29.72;19.12
50859;BME280;36826;47.514;19.056;2023-02-13T09:26:03;102229.91;;;28.35;19.95
50859;BME280;36826;47.514;19.056;2023-02-13T09:28:29;102227.09;;;28.22;19.57
50859;BME280;36826;47.514;19.056;2023-02-13T09:30:55;102224.97;;;27.10;20.50
50859;BME280;36826;47.514;19.056;2023-02-13T09:33:20;102225.88;;;28.31;20.08
50859;BME280;36826;47.514;19.056;2023-02-13T09:35:45;102225.94;;;27.74;19.99
50859;BME280;36826;47.514;19.056;2023-02-13T09:38:11;102219.16;;;30.28;18.81
50859;BME280;36826;47.514;19.056;2023-02-13T09:40:44;102217.38;;;28.94;19.34
50859;BME280;36826;47.514;19.056;2023-02-13T09:43:12;102215.53;;;29.69;19.13
50859;BME280;36826;47.514;19.056;2023-02-13T09:45:38;102215.34;;;31.39;17.78
50859;BME280;36826;47.514;19.056;2023-02-13T09:48:04;102213.34;;;31.46;18.25
50859;BME280;36826;47.514;19.056;2023-02-13T09:50:30;102217.44;;;32.25;17.77
50859;BME280;36826;47.514;19.056;2023-02-13T09:52:57;102211.63;;;32.75;17.35
50859;BME280;36826;47.514;19.056;2023-02-13T09:55:28;102215.19;;;32.64;17.56
50859;BME280;36826;47.514;19.056;2023-02-13T10:00:37;102208.94;;;32.99;17.31
50859;BME280;36826;47.514;19.056;2023-02-13T10:03:25;102214.94;;;31.35;18.17
50859;BME280;36826;47.514;19.056;2023-02-13T10:05:55;102208.13;;;31.57;17.73
50859;BME280;36826;47.514;19.056;2023-02-13T10:11:06;102188.47;;;31.83;17.90
50859;BME280;36826;47.514;19.056;2023-02-13T10:18:49;102183.94;;;30.95;18.27
50859;BME280;36826;47.514;19.056;2023-02-13T10:21:18;102190.75;;;28.46;19.77
50859;BME280;36826;47.514;19.056;2023-02-13T10:23:49;102190.22;;;26.80;20.95
50859;BME280;36826;47.514;19.056;2023-02-13T10:26:18;102179.13;;;28.09;20.21
50859;BME280;36826;47.514;19.056;2023-02-13T10:28:48;102179.28;;;27.59;20.77
50859;BME280;36826;47.514;19.056;2023-02-13T10:31:38;102186.63;;;27.02;20.89
50859;BME280;36826;47.514;19.056;2023-02-13T10:34:03;102178.84;;;26.69;21.04
50859;BME280;36826;47.514;19.056;2023-02-13T10:36:30;102182.56;;;25.94;21.83
50859;BME280;36826;47.514;19.056;2023-02-13T10:38:59;102160.78;;;25.78;22.29
50859;BME280;36826;47.514;19.056;2023-02-13T10:41:30;102173.00;;;23.31;23.86
50859;BME280;36826;47.514;19.056;2023-02-13T10:49:24;102166.41;;;20.73;26.67
50859;BME280;36826;47.514;19.056;2023-02-13T10:52:10;102164.56;;;20.28;27.21
50859;BME280;36826;47.514;19.056;2023-02-13T10:57:21;102159.22;;;21.97;26.07
50859;BME280;36826;47.514;19.056;2023-02-13T11:02:34;102146.66;;;21.52;26.20
50859;BME280;36826;47.514;19.056;2023-02-13T11:07:38;102133.72;;;23.07;25.02
50859;BME280;36826;47.514;19.056;2023-02-13T11:10:13;102124.28;;;22.93;25.14
50859;BME280;36826;47.514;19.056;2023-02-13T11:12:38;102125.34;;;23.25;24.64
50859;BME280;36826;47.514;19.056;2023-02-13T11:15:05;102120.34;;;22.55;25.46
50859;BME280;36826;47.514;19.056;2023-02-13T11:17:32;102120.03;;;22.99;25.33
50859;BME280;36826;47.514;19.056;2023-02-13T11:20:00;102123.47;;;21.74;26.14
50859;BME280;36826;47.514;19.056;2023-02-13T11:22:33;102114.09;;;21.76;26.50
50859;BME280;36826;47.514;19.056;2023-02-13T11:25:03;102112.06;;;21.79;26.47
50859;BME280;36826;47.514;19.056;2023-02-13T11:27:32;102110.19;;;22.22;26.06
50859;BME280;36826;47.514;19.056;2023-02-13T11:29:58;102107.78;;;22.27;25.84
50859;BME280;36826;47.514;19.056;2023-02-13T11:32:31;102104.88;;;21.69;26.71
50859;BME280;36826;47.514;19.056;2023-02-13T11:35:15;102099.34;;;22.47;25.91
50859;BME280;36826;47.514;19.056;2023-02-13T11:37:42;102101.34;;;22.36;26.01
50859;BME280;36826;47.514;19.056;2023-02-13T11:40:23;102090.16;;;22.64;25.97
50859;BME280;36826;47.514;19.056;2023-02-13T11:42:52;102084.16;;;22.44;26.03
50859;BME280;36826;47.514;19.056;2023-02-13T11:45:22;102089.06;;;22.41;26.05
50859;BME280;36826;47.514;19.056;2023-02-13T11:47:48;102080.00;;;21.46;26.84
50859;BME280;36826;47.514;19.056;2023-02-13T11:52:51;102074.09;;;22.53;26.38
50859;BME280;36826;47.514;19.056;2023-02-13T11:58:02;102081.25;;;22.54;26.20
50859;BME280;36826;47.514;19.056;2023-02-13T12:00:32;102081.72;;;22.33;26.24
50859;BME280;36826;47.514;19.056;2023-02-13T12:03:23;102070.03;;;21.98;26.61
50859;BME280;36826;47.514;19.056;2023-02-13T12:06:09;102071.16;;;21.79;26.90
50859;BME280;36826;47.514;19.056;2023-02-13T12:08:40;102071.28;;;21.69;27.07
50859;BME280;36826;47.514;19.056;2023-02-13T12:11:19;102069.50;;;22.45;26.36
50859;BME280;36826;47.514;19.056;2023-02-13T12:13:46;102060.28;;;22.96;26.00
50859;BME280;36826;47.514;19.056;2023-02-13T12:18:57;102059.09;;;22.74;26.42
50859;BME280;36826;47.514;19.056;2023-02-13T12:21:31;102052.94;;;22.55;26.62
50859;BME280;36826;47.514;19.056;2023-02-13T12:26:30;102057.69;;;21.77;27.45
50859;BME280;36826;47.514;19.056;2023-02-13T12:29:15;102053.50;;;21.99;26.98
50859;BME280;36826;47.514;19.056;2023-02-13T12:39:36;102034.63;;;22.39;27.04
50859;BME280;36826;47.514;19.056;2023-02-13T12:42:30;102028.63;;;22.27;27.09
50859;BME280;36826;47.514;19.056;2023-02-13T12:45:13;102025.97;;;22.60;26.96
50859;BME280;36826;47.514;19.056;2023-02-13T12:53:20;102008.75;;;22.43;27.18
50859;BME280;36826;47.514;19.056;2023-02-13T12:55:56;102002.25;;;22.69;27.06
50859;BME280;36826;47.514;19.056;2023-02-13T13:01:16;101994.53;;;22.31;27.46
50859;BME280;36826;47.514;19.056;2023-02-13T13:03:53;101996.06;;;22.17;27.80
50859;BME280;36826;47.514;19.056;2023-02-13T13:25:17;101992.25;;;21.42;29.09
50859;BME280;36826;47.514;19.056;2023-02-13T13:27:47;101993.88;;;21.27;29.50
50859;BME280;36826;47.514;19.056;2023-02-13T13:30:22;101994.69;;;21.19;29.54
50859;BME280;36826;47.514;19.056;2023-02-13T13:32:51;101997.13;;;20.96;30.33
50859;BME280;36826;47.514;19.056;2023-02-13T13:35:22;101989.50;;;21.34;29.98
50859;BME280;36826;47.514;19.056;2023-02-13T13:37:52;101996.88;;;21.15;29.75
50859;BME280;36826;47.514;19.056;2023-02-13T13:43:06;101993.91;;;21.70;29.46
50859;BME280;36826;47.514;19.056;2023-02-13T13:45:47;101990.22;;;21.96;29.15
50859;BME280;36826;47.514;19.056;2023-02-13T13:48:25;101982.66;;;21.30;29.85
50859;BME280;36826;47.514;19.056;2023-02-13T13:50:55;101978.31;;;21.19;30.12
50859;BME280;36826;47.514;19.056;2023-02-13T13:53:21;101976.09;;;21.14;30.18
50859;BME280;36826;47.514;19.056;2023-02-13T13:58:24;101974.94;;;20.91;30.01
50859;BME280;36826;47.514;19.056;2023-02-13T14:03:39;101983.75;;;20.66;30.02
50859;BME280;36826;47.514;19.056;2023-02-13T14:06:08;101986.81;;;20.81;30.17
50859;BME280;36826;47.514;19.056;2023-02-13T14:13:54;101978.09;;;21.04;30.48
50859;BME280;36826;47.514;19.056;2023-02-13T14:19:03;101995.81;;;20.82;30.99
50859;BME280;36826;47.514;19.056;2023-02-13T14:21:29;101992.72;;;21.03;30.58
50859;BME280;36826;47.514;19.056;2023-02-13T14:23:58;102001.00;;;20.31;31.54
50859;BME280;36826;47.514;19.056;2023-02-13T14:26:34;101995.69;;;20.83;30.92
50859;BME280;36826;47.514;19.056;2023-02-13T14:31:39;101995.59;;;20.57;31.40
50859;BME280;36826;47.514;19.056;2023-02-13T14:34:06;101996.38;;;20.49;31.96
50859;BME280;36826;47.514;19.056;2023-02-13T14:36:41;101996.47;;;21.02;31.26
50859;BME280;36826;47.514;19.056;2023-02-13T14:39:28;101993.34;;;21.58;30.73
50859;BME280;36826;47.514;19.056;2023-02-13T14:44:42;101997.81;;;20.35;31.99
50859;BME280;36826;47.514;19.056;2023-02-13T14:49:43;101993.25;;;21.41;30.98
50859;BME280;36826;47.514;19.056;2023-02-13T14:52:15;102003.94;;;20.56;32.37